Time,TemperatureF,DewpointF,PressureIn,WindDirection,WindDirectionDegrees,WindSpeedMPH,WindSpeedGustMPH,Humidity,HourlyPrecipIn,Conditions,Clouds,dailyrainin,SoftwareType,DateUTC
2013-05-30 00:00:00,49.7,48.9,29.97,East,90,0.0,1.0,97,0.01,,SKC,0.00,VWS V14.01,2013-05-30 07:00:00,
2013-05-30 00:15:00,49.7,48.9,29.97,East,90,0.0,4.0,97,0.01,,SKC,0.00,VWS V14.01,2013-05-30 07:15:00,
2013-05-30 00:30:00,49.6,48.8,29.97,East,90,0.0,4.0,97,0.01,,SKC,0.01,VWS V14.01,2013-05-30 07:30:00,
2013-05-30 00:45:00,49.5,48.7,29.98,East,90,0.0,4.0,97,0.01,,SKC,0.01,VWS V14.01,2013-05-30 07:45:00,
2013-05-30 01:00:00,49.4,48.6,29.98,ESE,112,1.0,6.0,97,0.01,,SKC,0.01,VWS V14.01,2013-05-30 08:00:00,
2013-05-30 01:15:00,49.3,48.8,29.98,ENE,68,0.0,3.0,98,0.01,,SKC,0.01,VWS V14.01,2013-05-30 08:15:00,
2013-05-30 01:30:00,49.3,48.8,29.98,ENE,68,0.0,2.0,98,0.01,,SKC,0.01,VWS V14.01,2013-05-30 08:30:00,
2013-05-30 01:45:00,49.4,48.9,29.98,ENE,68,0.0,4.0,98,0.00,,SKC,0.01,VWS V14.01,2013-05-30 08:45:00,
2013-05-30 02:00:00,49.5,49.0,29.99,SE,135,1.0,5.0,98,0.00,,SKC,0.01,VWS V14.01,2013-05-30 09:00:00,
2013-05-30 02:15:00,49.6,49.1,29.99,SSE,158,1.0,5.0,98,0.00,,SKC,0.01,VWS V14.01,2013-05-30 09:15:00,
2013-05-30 02:30:00,49.6,48.8,29.99,SSE,158,0.0,4.0,97,0.00,,SKC,0.01,VWS V14.01,2013-05-30 09:30:00,
2013-05-30 02:45:00,49.6,48.8,30.00,SSE,158,1.0,6.0,97,0.00,,SKC,0.01,VWS V14.01,2013-05-30 09:45:00,
2013-05-30 03:00:00,49.4,48.6,30.00,SSE,158,2.0,6.0,97,0.00,,SKC,0.01,VWS V14.01,2013-05-30 10:00:00,
2013-05-30 03:15:00,49.3,48.5,30.00,South,180,1.0,7.0,97,0.00,,SKC,0.01,VWS V14.01,2013-05-30 10:15:00,
2013-05-30 03:30:00,49.2,48.1,30.01,SSE,158,2.0,6.0,96,0.00,,SKC,0.01,VWS V14.01,2013-05-30 10:30:00,
2013-05-30 03:45:00,49.0,47.9,30.01,SSE,158,1.0,5.0,96,0.00,,SKC,0.01,VWS V14.01,2013-05-30 10:45:00,
2013-05-30 04:00:00,48.9,47.5,30.02,SSE,158,2.0,8.0,95,0.00,,SKC,0.01,VWS V14.01,2013-05-30 11:00:00,
2013-05-30 04:15:00,48.8,47.4,30.02,South,180,2.0,6.0,95,0.00,,SKC,0.01,VWS V14.01,2013-05-30 11:15:00,
2013-05-30 04:30:00,48.7,47.3,30.02,SSE,158,2.0,6.0,95,0.00,,SKC,0.01,VWS V14.01,2013-05-30 11:30:00,
2013-05-30 04:45:00,48.7,47.3,30.03,SSE,158,1.0,5.0,95,0.00,,SKC,0.01,VWS V14.01,2013-05-30 11:45:00,
2013-05-30 05:00:00,48.6,47.0,30.03,South,180,2.0,9.0,94,0.00,,SKC,0.01,VWS V14.01,2013-05-30 12:00:00,
2013-05-30 05:15:00,48.6,47.0,30.04,SSW,202,1.0,7.0,94,0.00,,SKC,0.01,VWS V14.01,2013-05-30 12:15:00,
2013-05-30 05:30:00,48.5,46.9,30.05,South,180,0.0,3.0,94,0.01,,SKC,0.02,VWS V14.01,2013-05-30 12:30:00,
2013-05-30 05:45:00,48.5,46.9,30.05,South,180,0.0,1.0,94,0.02,,SKC,0.03,VWS V14.01,2013-05-30 12:45:00,
2013-05-30 06:00:00,48.4,47.0,30.05,South,180,0.0,1.0,95,0.02,,SKC,0.03,VWS V14.01,2013-05-30 13:00:00,
2013-05-30 06:15:00,48.3,46.9,30.05,SE,135,0.0,2.0,95,0.02,,SKC,0.03,VWS V14.01,2013-05-30 13:15:00,
2013-05-30 06:30:00,48.2,46.8,30.05,SE,135,1.0,4.0,95,0.02,,SKC,0.03,VWS V14.01,2013-05-30 13:30:00,
2013-05-30 06:45:00,48.2,46.8,30.06,SSE,158,0.0,1.0,95,0.01,,SKC,0.03,VWS V14.01,2013-05-30 13:45:00,
2013-05-30 07:00:00,48.2,46.8,30.06,SE,135,1.0,5.0,95,0.00,,SKC,0.03,VWS V14.01,2013-05-30 14:00:00,
2013-05-30 07:15:00,48.5,46.9,30.06,SE,135,1.0,6.0,94,0.00,,SKC,0.03,VWS V14.01,2013-05-30 14:15:00,
2013-05-30 07:30:00,48.7,47.0,30.07,SE,135,1.0,6.0,94,0.00,,SKC,0.03,VWS V14.01,2013-05-30 14:30:00,
2013-05-30 07:45:00,48.8,47.2,30.08,ESE,112,0.0,2.0,94,0.00,,SKC,0.03,VWS V14.01,2013-05-30 14:45:00,
2013-05-30 08:00:00,48.8,47.2,30.08,SE,135,0.0,5.0,94,0.00,,SKC,0.03,VWS V14.01,2013-05-30 15:00:00,
2013-05-30 08:15:00,48.8,47.4,30.09,SE,135,1.0,4.0,95,0.01,,SKC,0.04,VWS V14.01,2013-05-30 15:15:00,
2013-05-30 08:30:00,49.0,47.6,30.09,SSE,158,0.0,4.0,95,0.01,,SKC,0.04,VWS V14.01,2013-05-30 15:30:00,
2013-05-30 08:45:00,49.2,47.8,30.09,ESE,112,1.0,6.0,95,0.01,,SKC,0.04,VWS V14.01,2013-05-30 15:45:00,
2013-05-30 09:00:00,49.3,47.9,30.10,ESE,112,1.0,6.0,95,0.01,,SKC,0.04,VWS V14.01,2013-05-30 16:00:00,
2013-05-30 09:15:00,49.7,48.6,30.10,ESE,112,1.0,4.0,96,0.02,,SKC,0.05,VWS V14.01,2013-05-30 16:15:00,
2013-05-30 09:30:00,50.2,49.1,30.10,ESE,112,1.0,5.0,96,0.01,,SKC,0.05,VWS V14.01,2013-05-30 16:30:00,
2013-05-30 09:45:00,51.5,50.7,30.10,SE,135,1.0,6.0,97,0.01,,SKC,0.05,VWS V14.01,2013-05-30 16:45:00,
2013-05-30 10:00:00,51.7,50.3,30.10,ESE,112,2.0,7.0,95,0.01,,SKC,0.05,VWS V14.01,2013-05-30 17:00:00,
2013-05-30 10:15:00,52.3,50.3,30.10,ESE,112,2.0,8.0,93,0.01,,SKC,0.05,VWS V14.01,2013-05-30 17:15:00,
2013-05-30 10:30:00,53.3,50.7,30.10,South,180,2.0,11.0,91,0.00,,SKC,0.05,VWS V14.01,2013-05-30 17:30:00,
2013-05-30 10:45:00,53.7,49.9,30.11,SW,225,2.0,8.0,87,0.00,,SKC,0.05,VWS V14.01,2013-05-30 17:45:00,
2013-05-30 11:00:00,54.1,49.7,30.11,SSE,158,2.0,7.0,85,0.00,,SKC,0.05,VWS V14.01,2013-05-30 18:00:00,
2013-05-30 11:15:00,55.0,50.6,30.11,SE,135,1.0,6.0,85,0.00,,SKC,0.05,VWS V14.01,2013-05-30 18:15:00,
2013-05-30 11:30:00,55.3,50.2,30.12,ESE,112,1.0,7.0,83,0.00,,SKC,0.05,VWS V14.01,2013-05-30 18:30:00,
2013-05-30 11:45:00,55.6,49.5,30.12,South,180,1.0,4.0,80,0.00,,SKC,0.05,VWS V14.01,2013-05-30 18:45:00,
2013-05-30 12:00:00,55.8,50.7,30.12,ESE,112,1.0,7.0,83,0.00,,SKC,0.05,VWS V14.01,2013-05-30 19:00:00,
2013-05-30 12:15:00,55.4,50.3,30.12,SE,135,2.0,9.0,83,0.00,,SKC,0.05,VWS V14.01,2013-05-30 19:15:00,
2013-05-30 12:30:00,55.7,50.6,30.12,ESE,112,1.0,6.0,83,0.00,,SKC,0.05,VWS V14.01,2013-05-30 19:30:00,
2013-05-30 12:45:00,55.4,49.3,30.12,ESE,112,5.0,13.0,80,0.00,,SKC,0.05,VWS V14.01,2013-05-30 19:45:00,
2013-05-30 13:00:00,56.9,50.5,30.12,ESE,112,2.0,9.0,79,0.00,,SKC,0.05,VWS V14.01,2013-05-30 20:00:00,
2013-05-30 13:15:00,57.0,49.5,30.13,ESE,112,4.0,12.0,76,0.00,,SKC,0.05,VWS V14.01,2013-05-30 20:15:00,
2013-05-30 13:30:00,57.2,49.4,30.13,ESE,112,4.0,11.0,75,0.00,,SKC,0.05,VWS V14.01,2013-05-30 20:30:00,
2013-05-30 13:45:00,58.0,49.8,30.13,SE,135,3.0,9.0,74,0.00,,SKC,0.05,VWS V14.01,2013-05-30 20:45:00,
2013-05-30 14:00:00,58.2,49.2,30.14,SE,135,3.0,11.0,72,0.00,,SKC,0.05,VWS V14.01,2013-05-30 21:00:00,
2013-05-30 14:15:00,58.7,49.7,30.14,SE,135,2.0,7.0,72,0.00,,SKC,0.05,VWS V14.01,2013-05-30 21:15:00,
2013-05-30 14:30:00,59.8,50.0,30.14,SSE,158,2.0,8.0,70,0.00,,SKC,0.05,VWS V14.01,2013-05-30 21:30:00,
2013-05-30 14:45:00,60.4,49.4,30.13,SSE,158,3.0,8.0,67,0.00,,SKC,0.05,VWS V14.01,2013-05-30 21:45:00,
2013-05-30 15:00:00,60.2,49.6,30.14,South,180,2.0,8.0,68,0.00,,SKC,0.05,VWS V14.01,2013-05-30 22:00:00,
2013-05-30 15:15:00,60.5,49.5,30.14,SSE,158,1.0,8.0,67,0.00,,SKC,0.05,VWS V14.01,2013-05-30 22:15:00,
2013-05-30 15:30:00,60.7,48.9,30.14,SSW,202,3.0,8.0,65,0.00,,SKC,0.05,VWS V14.01,2013-05-30 22:30:00,
2013-05-30 15:45:00,60.7,48.0,30.14,SW,225,4.0,12.0,63,0.00,,SKC,0.05,VWS V14.01,2013-05-30 22:45:00,
2013-05-30 16:00:00,60.7,48.5,30.14,SW,225,6.0,13.0,64,0.00,,SKC,0.05,VWS V14.01,2013-05-30 23:00:00,
2013-05-30 16:15:00,60.4,49.0,30.14,SSE,158,2.0,7.0,66,0.00,,SKC,0.05,VWS V14.01,2013-05-30 23:15:00,
2013-05-30 16:30:00,60.8,48.6,30.14,SW,225,4.0,12.0,64,0.00,,SKC,0.05,VWS V14.01,2013-05-30 23:30:00,
2013-05-30 17:00:00,59.3,49.5,30.14,SE,135,5.0,11.0,70,0.00,,SKC,0.05,VWS V14.01,2013-05-31 00:00:00,
2013-05-30 17:15:00,59.1,50.8,30.15,ESE,112,3.0,8.0,74,0.00,,SKC,0.05,VWS V14.01,2013-05-31 00:15:00,
2013-05-30 17:30:00,60.2,49.6,30.15,SW,225,2.0,14.0,68,0.00,,SKC,0.05,VWS V14.01,2013-05-31 00:30:00,
2013-05-30 17:45:00,59.2,49.4,30.15,SW,225,7.0,14.0,70,0.00,,SKC,0.05,VWS V14.01,2013-05-31 00:45:00,
2013-05-30 18:00:00,58.6,50.0,30.15,SW,225,4.0,11.0,73,0.00,,SKC,0.05,VWS V14.01,2013-05-31 01:00:00,
2013-05-30 18:15:00,58.7,49.0,30.15,South,180,2.0,6.0,70,0.00,,SKC,0.05,VWS V14.01,2013-05-31 01:15:00,
2013-05-30 18:30:00,59.9,48.5,30.15,South,180,3.0,9.0,66,0.00,,SKC,0.05,VWS V14.01,2013-05-31 01:30:00,
2013-05-30 18:45:00,60.4,48.6,30.15,SW,225,3.0,11.0,65,0.00,,SKC,0.05,VWS V14.01,2013-05-31 01:45:00,
2013-05-30 19:00:00,59.4,48.8,30.16,SSW,202,3.0,10.0,68,0.00,,SKC,0.05,VWS V14.01,2013-05-31 02:00:00,
2013-05-30 19:15:00,58.5,48.0,30.16,South,180,4.0,11.0,68,0.00,,SKC,0.05,VWS V14.01,2013-05-31 02:15:00,
2013-05-30 19:30:00,58.0,48.3,30.17,SW,225,4.0,12.0,70,0.00,,SKC,0.05,VWS V14.01,2013-05-31 02:30:00,
2013-05-30 19:45:00,57.6,48.3,30.17,South,180,2.0,10.0,71,0.00,,SKC,0.05,VWS V14.01,2013-05-31 02:45:00,
2013-05-30 20:00:00,57.1,48.5,30.18,SSW,202,1.0,7.0,73,0.00,,SKC,0.05,VWS V14.01,2013-05-31 03:00:00,
2013-05-30 20:15:00,56.7,48.9,30.18,SSE,158,1.0,7.0,75,0.00,,SKC,0.05,VWS V14.01,2013-05-31 03:15:00,
2013-05-30 20:30:00,56.1,49.0,30.18,SSE,158,1.0,7.0,77,0.00,,SKC,0.05,VWS V14.01,2013-05-31 03:30:00,
2013-05-30 20:45:00,55.7,49.0,30.18,SSE,158,1.0,6.0,78,0.00,,SKC,0.05,VWS V14.01,2013-05-31 03:45:00,
2013-05-30 21:00:00,55.4,48.7,30.19,South,180,1.0,5.0,78,0.00,,SKC,0.05,VWS V14.01,2013-05-31 04:00:00,
2013-05-30 21:15:00,55.1,48.7,30.19,ESE,112,1.0,5.0,79,0.00,,SKC,0.05,VWS V14.01,2013-05-31 04:15:00,
2013-05-30 21:30:00,54.8,49.1,30.20,ESE,112,1.0,5.0,81,0.00,,SKC,0.05,VWS V14.01,2013-05-31 04:30:00,
2013-05-30 21:45:00,54.6,49.2,30.21,East,90,0.0,2.0,82,0.00,,SKC,0.05,VWS V14.01,2013-05-31 04:45:00,
2013-05-30 22:00:00,54.5,48.8,30.22,SSW,202,1.0,6.0,81,0.00,,SKC,0.05,VWS V14.01,2013-05-31 05:00:00,
2013-05-30 22:15:00,54.4,49.0,30.22,South,180,1.0,4.0,82,0.00,,SKC,0.05,VWS V14.01,2013-05-31 05:15:00,
2013-05-30 22:30:00,54.4,49.3,30.22,South,180,0.0,2.0,83,0.00,,SKC,0.05,VWS V14.01,2013-05-31 05:30:00,
2013-05-30 22:45:00,54.3,48.9,30.22,South,180,0.0,4.0,82,0.00,,SKC,0.05,VWS V14.01,2013-05-31 05:45:00,
2013-05-30 23:00:00,54.0,49.0,30.23,South,180,2.0,7.0,83,0.00,,SKC,0.05,VWS V14.01,2013-05-31 06:00:00,
2013-05-30 23:15:00,53.7,48.7,30.23,South,180,3.0,9.0,83,0.00,,SKC,0.05,VWS V14.01,2013-05-31 06:15:00,
2013-05-30 23:30:00,53.5,48.8,30.24,South,180,3.0,9.0,84,0.00,,SKC,0.05,VWS V14.01,2013-05-31 06:30:00,
2013-05-30 23:45:00,53.4,48.7,30.24,South,180,2.0,9.0,84,0.00,,SKC,0.05,VWS V14.01,2013-05-31 06:45:00,